CYTZ/YTZ METAR and TAF weather

Enter ICAO airport designator
Example: see airport list
Station Type Date Time Source
CYTZ METAR 2016/12/08 07:00 UTC NOAA

CYTZ 080700Z AUTO 23013KT 9SM CLR 01/M03 A2992 RMK SLP135


Station Type Date Time Source
CYTZ Decoded METAR 2016/12/08 07:00 UTC NOAA

Toronto Island Airport Automated Reporting Station, Canada (CYTZ) 43-38N 079-24W
Dec 08, 2016 - 02:00 AM EST / 2016.12.08 0700 UTC
Wind: from the SW (230 degrees) at 15 MPH (13 KT):0
Visibility: 9 mile(s):0
Sky conditions: clear
Temperature: 33 F (1 C)
Windchill: 23 F (-5 C):1
Dew Point: 26 F (-3 C)
Relative Humidity: 74%
Pressure (altimeter): 29.92 in. Hg (1013 hPa)
ob: CYTZ 080700Z AUTO 23013KT 9SM CLR 01/M03 A2992 RMK SLP135
cycle: 7

Station Type Date Time Source
CYTZ TAF 2016/12/08 08:43 UTC NOAA

TAF CYTZ 080738Z 0808/0908 25015KT P6SM BKN025
TEMPO 0808/0816 BKN020
BECMG 0814/0816 27015G25KT
FM081600 27017G27KT P6SM BKN030
TEMPO 0816/0820 4SM -SHSN OVC020
FM082000 27020G30KT P6SM BKN030
TEMPO 0820/0901 6SM -SHSN BKN020
FM090100 29020G30KT P6SM -SHSN BKN030
TEMPO 0901/0904 2SM -SHSN OVC015
FM090400 30015G25KT P6SM BKN030
TEMPO 0904/0908 5SM -SHSN BKN020
RMK FCST BASED ON AUTO OBS. NXT FCST BY 081400Z